Time;durP1;ratioP1;P1;durP2;ratioP2;P2;SDS_P1;SDS_P2;PMS_P1;PMS_P2;Temp;Humidity;BMP_temperature;BMP_pressure;BME280_temperature;BME280_humidity;BME280_pressure;Samples;Min_cycle;Max_cycle;Signal;HPM_P1;HPM_P2
2022/03/12 00:01:55;;;;;;;15.63;7.75;;;;;;;-2.68;79.16;101683.23;1911979;75;21039;-59
2022/03/12 00:04:24;;;;;;;20.65;9.38;;;;;;;-2.68;79.10;101679.37;1912002;75;21039;-58
2022/03/12 00:06:53;;;;;;;19.40;9.45;;;;;;;-2.65;79.04;101675.60;1912055;75;21115;-58
2022/03/12 00:09:22;;;;;;;19.42;9.78;;;;;;;-2.60;78.99;101676.59;1912243;75;21556;-60
2022/03/12 00:11:56;;;;;;;18.12;8.85;;;;;;;-2.60;79.03;101683.03;1911917;75;21570;-60
2022/03/12 00:14:23;;;;;;;19.27;9.45;;;;;;;-2.60;78.99;101685.61;1911788;74;21157;-60
2022/03/12 00:16:51;;;;;;;20.17;6.20;;;;;;;-2.59;78.91;101684.80;1912029;74;21051;-60
2022/03/12 00:19:21;;;;;;;20.12;8.60;;;;;;;-2.58;78.86;101686.56;1911421;75;21137;-60
2022/03/12 00:21:51;;;;;;;15.93;6.80;;;;;;;-2.57;78.81;101688.30;1910141;75;21529;-59
2022/03/12 00:24:19;;;;;;;11.35;5.28;;;;;;;-2.59;78.72;101683.52;1910203;75;21482;-61
2022/03/12 00:26:50;;;;;;;13.70;6.33;;;;;;;-2.60;78.79;101685.61;1914493;74;21149;-58
2022/03/12 00:29:20;;;;;;;14.50;6.62;;;;;;;-2.67;79.10;101678.13;1941434;73;21117;-58
2022/03/12 00:31:51;;;;;;;15.03;7.58;;;;;;;-2.67;79.10;101678.13;1952446;73;21630;-57
2022/03/12 00:34:19;;;;;;;9.75;5.22;;;;;;;-2.64;78.58;101689.80;1937923;73;21030;-57
2022/03/12 00:36:49;;;;;;;15.63;7.17;;;;;;;-2.65;78.51;101687.20;1962114;73;21086;-60
2022/03/12 00:39:19;;;;;;;14.03;7.37;;;;;;;-2.69;78.47;101695.27;1962109;73;21575;-57
2022/03/12 00:41:48;;;;;;;13.93;7.22;;;;;;;-2.76;78.52;101692.89;1894858;76;21176;-60
2022/03/12 00:44:17;;;;;;;17.07;8.98;;;;;;;-2.76;78.52;101692.89;1930367;73;21104;-59
2022/03/12 00:46:47;;;;;;;14.20;7.78;;;;;;;-2.69;78.29;101694.36;1927234;73;21108;-59
2022/03/12 00:49:16;;;;;;;15.30;7.25;;;;;;;-2.69;78.29;101694.36;1927985;74;21441;-58
2022/03/12 00:51:45;;;;;;;16.12;9.03;;;;;;;-2.66;78.40;101689.31;1927722;74;21058;-58
2022/03/12 00:54:13;;;;;;;18.12;8.33;;;;;;;-2.66;78.34;101691.46;1927964;74;21100;-58
2022/03/12 00:56:42;;;;;;;19.12;9.33;;;;;;;-2.65;78.34;101693.66;1927974;74;21099;-58
2022/03/12 00:59:11;;;;;;;15.08;8.43;;;;;;;-2.66;78.29;101690.59;1927991;74;21015;-58
2022/03/12 01:01:39;;;;;;;10.03;5.35;;;;;;;-2.72;78.32;101690.86;1924246;74;21020;-58
2022/03/12 01:04:09;;;;;;;18.60;8.28;;;;;;;-2.76;78.53;101683.00;1920461;75;21138;-58
2022/03/12 01:06:38;;;;;;;17.10;8.23;;;;;;;-2.79;78.40;101688.05;1920570;75;21141;-58
2022/03/12 01:09:07;;;;;;;14.58;7.67;;;;;;;-2.78;78.33;101699.71;1920676;75;21552;-58
2022/03/12 01:11:36;;;;;;;9.45;4.67;;;;;;;-2.81;78.29;101700.89;1923394;74;21010;-57
2022/03/12 01:14:04;;;;;;;19.70;9.28;;;;;;;-2.89;78.28;101705.38;1927694;74;21050;-58
2022/03/12 01:16:35;;;;;;;18.27;8.83;;;;;;;-2.88;78.11;101707.97;1926777;73;21050;-59
2022/03/12 01:19:03;;;;;;;10.13;5.08;;;;;;;-2.87;78.03;101709.73;1924889;73;21038;-59
2022/03/12 01:21:33;;;;;;;17.27;8.40;;;;;;;-2.87;77.91;101707.16;1923923;74;21449;-59
2022/03/12 01:24:02;;;;;;;19.60;9.88;;;;;;;-2.87;77.91;101707.16;1923318;74;21006;-58
2022/03/12 01:26:34;;;;;;;15.85;7.60;;;;;;;-2.85;78.06;101711.08;1926152;74;21010;-58
2022/03/12 01:29:01;;;;;;;14.40;7.45;;;;;;;-2.82;77.99;101720.17;1923877;73;21031;-59
2022/03/12 01:31:31;;;;;;;13.05;7.65;;;;;;;-2.84;78.07;101717.58;1924604;74;21006;-58
2022/03/12 01:33:59;;;;;;;12.25;5.00;;;;;;;-2.84;78.07;101717.58;1923280;74;21022;-60
2022/03/12 01:36:28;;;;;;;14.28;7.62;;;;;;;-2.92;77.95;101710.00;1923598;74;21473;-60
2022/03/12 01:38:59;;;;;;;17.60;8.30;;;;;;;-2.87;77.99;101720.47;1924651;74;20994;-58
2022/03/12 01:41:31;;;;;;;17.20;8.78;;;;;;;-2.88;78.01;101722.14;1923188;74;21066;-60
2022/03/12 01:44:01;;;;;;;16.87;8.73;;;;;;;-2.88;78.01;101726.43;1924877;73;21034;-61
2022/03/12 01:46:34;;;;;;;11.33;6.08;;;;;;;-2.89;77.95;101722.13;1932225;73;21034;-60
2022/03/12 01:49:05;;;;;;;10.72;5.58;;;;;;;-2.94;77.79;101715.09;1927883;74;21096;-59
2022/03/12 01:51:34;;;;;;;8.40;5.03;;;;;;;-2.92;77.73;101726.33;1952547;73;21097;-59
2022/03/12 01:54:04;;;;;;;8.28;5.28;;;;;;;-2.97;77.70;101729.58;1962478;73;21462;-61
2022/03/12 01:56:38;;;;;;;16.90;8.80;;;;;;;-2.99;77.81;101733.81;1962723;73;21098;-60
2022/03/12 01:59:04;;;;;;;12.35;5.92;;;;;;;-3.03;77.77;101738.41;1961517;73;21008;-59
2022/03/12 02:01:33;;;;;;;13.95;7.08;;;;;;;-3.03;77.77;101743.56;1962677;73;21050;-60
2022/03/12 02:04:02;;;;;;;10.18;4.05;;;;;;;-3.03;77.15;101747.43;1960272;73;21490;-60
2022/03/12 02:06:32;;;;;;;10.15;5.37;;;;;;;-3.03;77.15;101747.43;1962528;73;21055;-62
2022/03/12 02:09:01;;;;;;;12.37;6.85;;;;;;;-3.06;77.57;101755.05;1962640;73;21144;-59
2022/03/12 02:11:32;;;;;;;16.25;8.25;;;;;;;-3.09;77.68;101753.27;1962730;73;21039;-60
2022/03/12 02:14:03;;;;;;;16.27;8.48;;;;;;;-3.10;77.62;101754.07;1962740;73;21157;-59
2022/03/12 02:16:33;;;;;;;8.68;5.42;;;;;;;-3.13;77.50;101757.44;1962698;73;21516;-60
2022/03/12 02:19:02;;;;;;;14.40;6.30;;;;;;;-3.13;77.46;101762.59;1962530;73;21055;-61
2022/03/12 02:21:40;;;;;;;18.73;8.50;;;;;;;-3.12;77.55;101760.48;1962698;73;21011;-59
2022/03/12 02:24:12;;;;;;;14.90;7.90;;;;;;;-3.09;77.40;101761.41;1952558;73;21095;-59
2022/03/12 02:26:43;;;;;;;17.10;8.18;;;;;;;-3.11;77.38;101760.07;1962194;73;21035;-59
2022/03/12 02:29:13;;;;;;;12.33;6.70;;;;;;;-3.13;77.28;101757.44;1962769;73;21032;-59
2022/03/12 02:31:44;;;;;;;7.28;4.17;;;;;;;-3.13;77.28;101757.44;1929498;73;21639;-59
2022/03/12 02:34:13;;;;;;;12.35;6.22;;;;;;;-3.12;77.25;101766.94;1921105;75;21509;-60
2022/03/12 02:36:42;;;;;;;18.10;7.70;;;;;;;-3.13;77.26;101770.31;1921280;75;21108;-59
2022/03/12 02:39:11;;;;;;;16.35;8.43;;;;;;;-3.14;77.13;101771.12;1910286;75;21131;-60
2022/03/12 02:41:40;;;;;;;15.15;7.70;;;;;;;-3.20;77.26;101764.69;1887843;76;21108;-60
2022/03/12 02:44:10;;;;;;;13.00;7.25;;;;;;;-3.26;77.53;101764.69;1887749;76;21045;-61
2022/03/12 02:46:41;;;;;;;10.60;5.78;;;;;;;-3.17;77.32;101774.02;1887976;76;21081;-60
2022/03/12 02:49:09;;;;;;;14.70;7.47;;;;;;;-3.15;77.24;101779.70;1887850;76;21034;-61
2022/03/12 02:51:40;;;;;;;9.65;5.03;;;;;;;-3.16;77.17;101781.80;1887921;76;21034;-60
2022/03/12 02:54:08;;;;;;;15.32;7.00;;;;;;;-3.13;77.06;101784.91;1887913;76;21080;-60
2022/03/12 02:56:37;;;;;;;10.82;5.50;;;;;;;-3.14;77.01;101782.72;1887974;76;21042;-61
2022/03/12 02:59:11;;;;;;;14.43;7.60;;;;;;;-3.13;77.02;101784.91;1888083;76;21085;-59
2022/03/12 03:01:37;;;;;;;12.78;7.37;;;;;;;-3.14;77.01;101785.72;1887898;76;21042;-59
2022/03/12 03:04:06;;;;;;;9.58;4.87;;;;;;;-3.08;76.96;101787.62;1887955;76;21190;-60
2022/03/12 03:06:35;;;;;;;15.20;6.03;;;;;;;-3.08;76.85;101791.10;1887978;76;21124;-60
2022/03/12 03:09:04;;;;;;;11.83;6.42;;;;;;;-3.12;76.85;101789.22;1888051;76;21542;-60
2022/03/12 03:11:39;;;;;;;15.43;7.95;;;;;;;-3.12;76.91;101791.80;1888085;76;21006;-60
2022/03/12 03:14:04;;;;;;;12.47;6.65;;;;;;;-3.12;76.97;101799.53;1887765;76;21073;-61
2022/03/12 03:16:33;;;;;;;17.00;8.15;;;;;;;-3.08;76.89;101800.51;1887923;76;21472;-61
2022/03/12 03:19:02;;;;;;;16.05;7.03;;;;;;;-3.07;76.79;101797.13;1888163;76;21108;-60
2022/03/12 03:21:32;;;;;;;10.15;5.92;;;;;;;-3.11;76.66;101800.00;1887869;76;21569;-62
2022/03/12 03:24:01;;;;;;;16.85;8.33;;;;;;;-3.14;76.69;101796.89;1888059;76;21038;-61
2022/03/12 03:26:42;;;;;;;20.23;8.93;;;;;;;-3.17;76.74;101806.22;1887977;76;21069;-60
2022/03/12 03:29:12;;;;;;;12.68;6.87;;;;;;;-3.17;76.74;101806.22;1887936;76;21167;-61
2022/03/12 03:31:44;;;;;;;16.10;8.00;;;;;;;-3.16;76.72;101808.84;1890817;74;21097;-61
2022/03/12 03:34:14;;;;;;;5.35;4.47;;;;;;;-3.14;76.73;101812.35;1893984;76;21054;-63
2022/03/12 03:36:42;;;;;;;14.28;7.50;;;;;;;-3.16;76.70;101817.87;1894246;76;21057;-59
2022/03/12 03:39:11;;;;;;;20.62;7.55;;;;;;;-3.19;76.77;101812.63;1893538;76;21018;-59
2022/03/12 03:41:41;;;;;;;9.58;4.60;;;;;;;-3.18;76.73;101816.07;1892092;76;21117;-60
2022/03/12 03:44:13;;;;;;;14.50;7.45;;;;;;;-3.20;76.66;101816.44;1892195;76;21453;-60
2022/03/12 03:46:42;;;;;;;16.20;7.72;;;;;;;-3.22;76.59;101812.81;1892175;76;21037;-59
2022/03/12 03:49:11;;;;;;;5.67;4.28;;;;;;;-3.24;76.74;101827.05;1892391;76;21609;-61
2022/03/12 03:51:41;;;;;;;11.28;5.83;;;;;;;-3.25;76.92;101826.56;1892472;76;21104;-61
2022/03/12 03:54:12;;;;;;;18.07;7.15;;;;;;;-3.25;76.92;101826.56;1892278;76;21014;-60
2022/03/12 03:56:41;;;;;;;21.87;9.18;;;;;;;-3.26;76.60;101829.08;1892334;76;21010;-59
2022/03/12 03:59:11;;;;;;;16.23;7.28;;;;;;;-3.26;76.66;101828.70;1892194;75;21605;-60
2022/03/12 04:01:41;;;;;;;10.05;6.22;;;;;;;-3.23;76.78;101836.92;1892244;76;21532;-60
2022/03/12 04:04:15;;;;;;;11.50;5.15;;;;;;;-3.23;76.78;101836.92;1892326;76;21084;-60
2022/03/12 04:06:41;;;;;;;18.77;7.05;;;;;;;-3.17;76.49;101843.19;1891993;76;21061;-60
2022/03/12 04:09:10;;;;;;;13.45;7.47;;;;;;;-3.17;76.42;101852.20;1892246;76;21527;-58
2022/03/12 04:11:39;;;;;;;7.33;4.35;;;;;;;-3.20;76.36;101844.35;1892161;76;21796;-59
2022/03/12 04:14:09;;;;;;;12.18;5.28;;;;;;;-3.23;76.28;101844.66;1892459;76;21484;-59
2022/03/12 04:16:38;;;;;;;10.63;5.03;;;;;;;-3.28;76.20;101852.23;1892283;76;21559;-59
2022/03/12 04:19:08;;;;;;;13.75;6.37;;;;;;;-3.31;76.17;101845.68;1892270;76;21086;-60
2022/03/12 04:24:26;;;;;;;6.58;4.28;;;;;;;-3.27;76.20;101850.11;1894166;75;21070;-60
2022/03/12 04:26:54;;;;;;;18.85;9.33;;;;;;;-3.18;76.01;101856.87;1894253;76;21497;-61
2022/03/12 04:29:23;;;;;;;11.65;6.35;;;;;;;-3.15;75.90;101856.99;1894196;76;21109;-60
2022/03/12 04:31:52;;;;;;;13.45;7.00;;;;;;;-3.07;75.85;101861.54;1894235;76;21112;-60
2022/03/12 04:34:22;;;;;;;12.73;6.67;;;;;;;-2.99;75.79;101860.09;1894188;76;21054;-60
2022/03/12 04:36:51;;;;;;;14.10;7.17;;;;;;;-2.89;75.68;101863.45;1894222;76;21480;-61
2022/03/12 04:39:21;;;;;;;11.05;5.60;;;;;;;-2.79;75.58;101867.22;1891446;76;21030;-60
2022/03/12 04:41:50;;;;;;;12.30;5.83;;;;;;;-2.77;75.39;101859.98;1887372;76;21509;-60
2022/03/12 04:44:20;;;;;;;14.70;7.95;;;;;;;-2.72;75.25;101870.05;1887434;76;21069;-60
2022/03/12 04:46:49;;;;;;;15.18;7.42;;;;;;;-2.65;75.26;101863.83;1887559;76;21045;-59
2022/03/12 04:49:19;;;;;;;12.93;7.28;;;;;;;-2.58;75.28;101868.36;1887390;76;21070;-60
2022/03/12 04:51:48;;;;;;;9.70;6.00;;;;;;;-2.50;75.00;101873.34;1887447;76;21046;-60
2022/03/12 04:54:18;;;;;;;14.13;5.65;;;;;;;-2.50;75.00;101873.34;1887284;76;21468;-60
2022/03/12 04:56:50;;;;;;;10.93;6.22;;;;;;;-2.49;75.16;101876.40;1887418;76;21519;-59
2022/03/12 04:59:18;;;;;;;12.23;6.53;;;;;;;-2.47;75.11;101874.77;1887341;76;21108;-61
2022/03/12 05:01:48;;;;;;;10.50;5.55;;;;;;;-2.45;75.14;101874.77;1887414;76;21038;-61
2022/03/12 05:04:16;;;;;;;13.30;7.10;;;;;;;-2.35;75.01;101880.27;1887388;76;21542;-62
2022/03/12 05:06:45;;;;;;;15.50;7.78;;;;;;;-2.35;75.01;101880.27;1887547;76;21127;-61
2022/03/12 05:09:14;;;;;;;11.22;5.15;;;;;;;-2.25;74.98;101877.98;1887522;76;21010;-61
2022/03/12 05:11:43;;;;;;;16.60;8.25;;;;;;;-2.22;74.85;101884.55;1887388;76;21088;-61
2022/03/12 05:14:15;;;;;;;12.55;5.67;;;;;;;-2.18;74.63;101875.64;1887318;76;21058;-63
2022/03/12 05:16:45;;;;;;;11.33;5.80;;;;;;;-2.05;74.47;101865.71;1887213;76;21147;-60
2022/03/12 05:19:14;;;;;;;9.65;4.80;;;;;;;-2.03;74.66;101870.11;1887265;76;21054;-60
2022/03/12 05:21:42;;;;;;;6.95;4.90;;;;;;;-1.93;73.87;101878.14;1887350;76;21029;-58
2022/03/12 05:24:11;;;;;;;14.25;7.62;;;;;;;-1.92;73.79;101885.14;1889765;75;21065;-61
2022/03/12 05:26:40;;;;;;;13.50;6.72;;;;;;;-1.89;73.74;101885.14;1890699;76;21042;-60
2022/03/12 05:29:10;;;;;;;10.80;4.87;;;;;;;-1.87;73.75;101886.92;1890319;76;21106;-60
2022/03/12 05:31:39;;;;;;;10.63;6.55;;;;;;;-1.74;73.78;101886.88;1891071;76;21049;-60
2022/03/12 05:34:08;;;;;;;14.18;6.80;;;;;;;-1.71;73.57;101880.53;1890861;76;21065;-59
2022/03/12 05:36:37;;;;;;;12.05;5.83;;;;;;;-1.61;73.42;101890.28;1890925;76;21452;-62
2022/03/12 05:39:05;;;;;;;10.50;5.92;;;;;;;-1.49;73.30;101881.16;1892674;75;21140;-60
2022/03/12 05:41:40;;;;;;;17.00;7.47;;;;;;;-1.37;72.76;101891.83;1897598;75;21108;-61
2022/03/12 05:44:05;;;;;;;14.40;5.33;;;;;;;-1.37;72.76;101891.83;1897234;75;21058;-61
2022/03/12 05:46:35;;;;;;;12.53;6.83;;;;;;;-1.33;72.29;101896.66;1897754;75;21100;-62
2022/03/12 05:49:04;;;;;;;6.78;4.00;;;;;;;-1.23;72.23;101897.39;1897619;75;21461;-61
2022/03/12 05:51:32;;;;;;;14.00;7.12;;;;;;;-1.11;72.08;101904.60;1897557;75;21026;-62
2022/03/12 05:54:01;;;;;;;12.55;6.60;;;;;;;-0.97;72.02;101904.56;1897557;75;21082;-62
2022/03/12 05:56:31;;;;;;;10.73;5.90;;;;;;;-0.92;71.79;101900.80;1897668;75;21066;-62
2022/03/12 05:59:00;;;;;;;10.85;5.08;;;;;;;-0.92;71.72;101899.11;1897632;75;21168;-61
2022/03/12 06:01:28;;;;;;;13.20;6.17;;;;;;;-0.88;71.56;101903.52;1897598;75;21124;-62
2022/03/12 06:03:59;;;;;;;13.15;6.53;;;;;;;-0.87;71.29;101909.13;1897583;75;21038;-62
2022/03/12 06:06:32;;;;;;;9.05;5.33;;;;;;;-0.92;71.05;101909.45;1897513;75;21130;-62
2022/03/12 06:08:58;;;;;;;15.70;7.85;;;;;;;-0.99;71.09;101907.53;1897424;75;21034;-61
2022/03/12 06:11:27;;;;;;;12.13;6.53;;;;;;;-1.06;70.86;101908.20;1897564;75;21461;-60
2022/03/12 06:14:01;;;;;;;12.35;5.42;;;;;;;-1.07;70.96;101915.48;1897599;75;21489;-61
2022/03/12 06:16:27;;;;;;;14.68;8.38;;;;;;;-1.06;70.91;101917.24;1896352;75;21043;-60
2022/03/12 06:18:59;;;;;;;14.07;5.60;;;;;;;-1.00;70.92;101917.01;1897564;75;21430;-60
2022/03/12 06:21:29;;;;;;;8.33;3.08;;;;;;;-0.97;70.75;101920.08;1897519;75;21042;-60
2022/03/12 06:24:00;;;;;;;10.30;5.30;;;;;;;-0.97;70.48;101923.95;1893604;74;21062;-60
2022/03/12 06:26:31;;;;;;;12.18;6.53;;;;;;;-0.97;70.34;101920.08;1880983;76;21055;-61
2022/03/12 06:28:59;;;;;;;10.85;6.35;;;;;;;-0.95;70.30;101930.05;1881049;76;21513;-60
2022/03/12 06:31:27;;;;;;;9.03;5.37;;;;;;;-0.86;70.39;101930.30;1881090;76;21517;-60
2022/03/12 06:33:56;;;;;;;13.83;7.20;;;;;;;-0.74;70.11;101934.91;1881199;76;21010;-59
2022/03/12 06:36:26;;;;;;;14.43;7.25;;;;;;;-0.75;69.90;101938.34;1881090;76;21074;-59
2022/03/12 06:38:55;;;;;;;15.93;7.12;;;;;;;-0.73;69.61;101935.37;1875013;76;21043;-60
2022/03/12 06:41:24;;;;;;;11.60;6.72;;;;;;;-0.65;69.62;101935.14;1853876;77;21161;-59
2022/03/12 06:43:53;;;;;;;19.70;6.97;;;;;;;-0.44;69.50;101936.56;1854003;77;21083;-60
2022/03/12 06:46:22;;;;;;;11.88;7.00;;;;;;;-0.29;69.29;101939.95;1856020;77;21025;-61
2022/03/12 06:48:50;;;;;;;11.38;5.83;;;;;;;-0.07;68.98;101939.63;1861462;76;21073;-64
2022/03/12 06:51:20;;;;;;;14.43;6.87;;;;;;;0.07;68.22;101940.38;1886953;76;21112;-64
2022/03/12 06:53:48;;;;;;;10.35;5.65;;;;;;;0.22;68.08;101938.55;1889689;76;21034;-62
2022/03/12 06:56:17;;;;;;;12.82;5.80;;;;;;;0.35;67.82;101936.28;1889778;76;21512;-64
2022/03/12 06:58:46;;;;;;;17.80;7.37;;;;;;;0.52;67.66;101937.08;1867290;76;21113;-61
2022/03/12 07:01:15;;;;;;;11.20;5.50;;;;;;;0.85;67.46;101939.89;1858931;77;21089;-61
2022/03/12 07:03:44;;;;;;;10.72;6.20;;;;;;;1.03;66.81;101941.55;1858874;77;21058;-64
2022/03/12 07:06:13;;;;;;;18.15;7.40;;;;;;;1.03;66.22;101942.85;1858877;77;21515;-61
2022/03/12 07:08:41;;;;;;;12.33;7.03;;;;;;;1.19;66.09;101938.84;1860918;76;21053;-63
2022/03/12 07:11:10;;;;;;;12.23;6.70;;;;;;;1.20;65.83;101935.82;1859130;77;21117;-60
2022/03/12 07:13:40;;;;;;;12.93;6.60;;;;;;;1.19;66.00;101937.98;1858893;77;21472;-60
2022/03/12 07:16:09;;;;;;;10.78;5.80;;;;;;;1.15;65.89;101944.39;1858944;77;21137;-62
2022/03/12 07:18:38;;;;;;;15.00;6.78;;;;;;;1.26;65.57;101944.61;1858847;77;21046;-61
2022/03/12 07:21:10;;;;;;;16.35;8.20;;;;;;;1.28;65.46;101941.61;1858847;77;21488;-61
2022/03/12 07:23:39;;;;;;;10.25;5.10;;;;;;;1.24;65.38;101937.22;1876146;76;21465;-61
2022/03/12 07:26:08;;;;;;;10.53;5.60;;;;;;;1.11;64.99;101943.89;1882458;76;21042;-61
2022/03/12 07:28:37;;;;;;;11.57;6.28;;;;;;;1.04;65.19;101943.31;1880988;76;21535;-61
2022/03/12 07:31:09;;;;;;;14.00;6.25;;;;;;;0.87;65.18;101946.88;1884135;76;21422;-61
2022/03/12 07:33:37;;;;;;;8.45;4.35;;;;;;;0.88;65.96;101955.52;1893243;76;21046;-61
2022/03/12 07:36:08;;;;;;;8.03;4.33;;;;;;;0.79;65.86;101948.42;1893032;76;21169;-58
2022/03/12 07:38:36;;;;;;;9.10;5.58;;;;;;;0.73;65.57;101953.06;1892555;75;21527;-59
2022/03/12 07:41:05;;;;;;;15.03;7.25;;;;;;;0.75;65.41;101955.70;1888742;76;21042;-61
2022/03/12 07:43:35;;;;;;;10.45;6.15;;;;;;;0.72;65.33;101956.52;1881161;76;21078;-61
2022/03/12 07:46:05;;;;;;;14.40;7.40;;;;;;;0.74;65.04;101954.83;1880367;76;21184;-60
2022/03/12 07:48:34;;;;;;;14.00;6.35;;;;;;;0.94;64.98;101960.83;1881110;76;21128;-61
2022/03/12 07:51:03;;;;;;;10.55;6.72;;;;;;;1.16;64.64;101959.53;1882161;76;21473;-60
2022/03/12 07:53:32;;;;;;;10.78;5.75;;;;;;;1.25;64.09;101958.41;1892504;75;21851;-60
2022/03/12 07:56:00;;;;;;;13.70;6.42;;;;;;;1.38;63.92;101959.95;1892291;76;21132;-61
2022/03/12 07:58:29;;;;;;;13.38;7.25;;;;;;;1.47;63.87;101957.09;1892518;76;21422;-60
2022/03/12 08:00:58;;;;;;;12.80;7.22;;;;;;;1.43;63.86;101961.77;1891464;75;21793;-63
2022/03/12 08:03:28;;;;;;;12.60;6.60;;;;;;;1.29;63.62;101964.53;1882760;76;21433;-60
2022/03/12 08:05:58;;;;;;;10.35;5.45;;;;;;;1.23;64.38;101964.42;1881145;76;21058;-61
2022/03/12 08:08:27;;;;;;;13.48;7.47;;;;;;;1.10;64.70;101969.37;1881268;76;21477;-59
2022/03/12 08:13:48;;;;;;;8.98;5.80;;;;;;;0.98;65.21;101971.73;1887973;75;21523;-59
2022/03/12 08:16:15;;;;;;;13.65;5.92;;;;;;;0.86;65.05;101976.66;1885972;76;21188;-60
2022/03/12 08:18:45;;;;;;;12.35;7.40;;;;;;;0.87;65.17;101970.66;1886705;76;21489;-59
2022/03/12 08:21:15;;;;;;;12.15;6.28;;;;;;;0.77;65.47;101973.45;1886714;76;21112;-61
2022/03/12 08:23:45;;;;;;;11.85;6.80;;;;;;;0.79;65.66;101978.24;1886587;76;21504;-59
2022/03/12 08:26:14;;;;;;;12.18;5.75;;;;;;;0.85;66.46;101986.56;1883529;76;21070;-61
2022/03/12 08:28:43;;;;;;;11.57;6.65;;;;;;;0.91;66.47;101977.64;1881167;76;21101;-60
2022/03/12 08:31:13;;;;;;;13.60;7.20;;;;;;;0.90;66.20;101978.47;1884781;76;21565;-60
2022/03/12 08:33:42;;;;;;;10.55;5.47;;;;;;;0.78;65.50;101978.23;1893356;76;21469;-61
2022/03/12 08:36:11;;;;;;;8.55;5.22;;;;;;;0.70;65.32;101988.02;1893065;76;21104;-60
2022/03/12 08:38:40;;;;;;;12.80;7.35;;;;;;;0.61;65.30;101983.93;1886767;76;21147;-61
2022/03/12 08:41:11;;;;;;;11.40;6.37;;;;;;;0.61;65.04;101978.75;1886905;76;21472;-60
2022/03/12 08:43:40;;;;;;;14.00;7.30;;;;;;;0.76;64.96;101979.50;1886762;76;21041;-61
2022/03/12 08:46:09;;;;;;;13.43;7.58;;;;;;;0.88;64.88;101980.16;1886701;76;21470;-60
2022/03/12 08:48:39;;;;;;;12.85;6.58;;;;;;;0.94;64.76;101978.58;1888112;76;21025;-61
2022/03/12 08:51:08;;;;;;;14.83;8.00;;;;;;;1.12;64.56;101980.64;1893809;76;21155;-60
2022/03/12 08:53:38;;;;;;;14.33;6.70;;;;;;;1.31;64.18;101979.30;1893928;76;21480;-60
2022/03/12 08:56:08;;;;;;;12.80;6.92;;;;;;;1.48;63.49;101984.80;1893829;76;21112;-60
2022/03/12 08:58:37;;;;;;;14.03;7.33;;;;;;;1.62;63.28;101983.73;1893785;76;21484;-60
2022/03/12 09:01:08;;;;;;;14.63;6.97;;;;;;;1.67;63.23;101986.44;1893781;76;21054;-60
2022/03/12 09:03:38;;;;;;;8.75;5.12;;;;;;;1.64;62.78;101998.05;1890282;76;21175;-60
2022/03/12 09:06:07;;;;;;;11.85;7.03;;;;;;;1.59;62.78;101994.52;1884700;76;21545;-59
2022/03/12 09:08:36;;;;;;;19.00;7.28;;;;;;;1.39;62.86;102000.20;1886661;76;21480;-58
2022/03/12 09:11:05;;;;;;;14.05;7.28;;;;;;;1.24;63.15;101999.48;1890021;76;21504;-58
2022/03/12 09:13:34;;;;;;;12.28;5.62;;;;;;;1.19;63.33;102004.14;1893934;76;21543;-60
2022/03/12 09:16:05;;;;;;;16.80;8.48;;;;;;;1.02;63.44;102004.67;1893781;76;21595;-60
2022/03/12 09:18:34;;;;;;;15.20;8.25;;;;;;;0.84;63.63;102009.47;1893743;76;21049;-59
2022/03/12 09:21:02;;;;;;;16.17;8.98;;;;;;;0.72;63.91;102007.07;1893839;76;21115;-58
2022/03/12 09:23:31;;;;;;;14.95;7.87;;;;;;;0.68;64.26;102017.33;1890061;76;21068;-60
2022/03/12 09:26:00;;;;;;;14.40;8.25;;;;;;;0.60;64.42;102013.70;1893446;76;21291;-60
2022/03/12 09:28:30;;;;;;;17.62;8.73;;;;;;;0.61;64.13;102018.02;1893692;76;21197;-59
2022/03/12 09:30:58;;;;;;;14.90;7.87;;;;;;;0.68;64.10;102013.04;1893326;74;21076;-62
2022/03/12 09:33:27;;;;;;;16.55;7.97;;;;;;;0.62;64.24;102010.29;1918474;74;20987;-62
2022/03/12 09:35:56;;;;;;;14.85;7.17;;;;;;;0.63;64.50;102012.45;1926992;74;21039;-62
2022/03/12 09:38:25;;;;;;;13.88;7.47;;;;;;;0.65;64.39;102011.66;1893538;74;21038;-62
2022/03/12 09:40:54;;;;;;;20.60;8.05;;;;;;;0.58;64.34;102021.44;1886419;74;21583;-61
2022/03/12 09:43:23;;;;;;;16.12;8.03;;;;;;;0.59;64.56;102010.24;1914174;74;21505;-60
2022/03/12 09:45:52;;;;;;;13.83;7.67;;;;;;;0.63;64.66;102015.05;1927415;74;21033;-59
2022/03/12 09:48:21;;;;;;;14.68;7.30;;;;;;;0.65;64.53;102012.96;1927435;74;21029;-59
2022/03/12 09:50:50;;;;;;;15.85;8.08;;;;;;;0.59;64.55;102016.72;1927441;74;21108;-59
2022/03/12 09:53:19;;;;;;;12.40;6.30;;;;;;;0.54;64.66;102018.33;1927249;74;21542;-61
2022/03/12 09:55:47;;;;;;;19.25;9.00;;;;;;;0.57;64.94;102014.09;1927551;74;21170;-62
2022/03/12 09:58:16;;;;;;;17.15;8.15;;;;;;;0.61;64.82;102020.22;1927362;74;21041;-63
2022/03/12 10:00:45;;;;;;;13.40;7.30;;;;;;;0.62;64.90;102015.91;1927389;74;20994;-58
2022/03/12 10:03:14;;;;;;;15.15;7.42;;;;;;;0.60;64.74;102009.38;1927347;74;21554;-59
2022/03/12 10:05:43;;;;;;;12.82;7.17;;;;;;;0.61;64.85;102015.04;1927277;74;21053;-62
2022/03/12 10:08:12;;;;;;;17.05;8.65;;;;;;;0.57;64.76;102015.78;1927565;74;21079;-61
2022/03/12 10:10:41;;;;;;;18.85;8.43;;;;;;;0.57;64.85;102021.87;1927326;74;21014;-59
2022/03/12 10:13:10;;;;;;;15.68;7.87;;;;;;;0.66;64.84;102018.58;1927330;74;21033;-60
2022/03/12 10:15:40;;;;;;;17.20;8.13;;;;;;;0.82;64.74;102016.34;1927479;74;21073;-61
2022/03/12 10:18:09;;;;;;;17.70;9.00;;;;;;;0.89;64.58;102015.64;1926594;74;21544;-61
2022/03/12 10:20:39;;;;;;;19.55;7.62;;;;;;;0.86;64.38;102014.27;1925414;74;21014;-60
2022/03/12 10:23:08;;;;;;;13.98;7.33;;;;;;;0.88;64.33;102017.33;1925453;74;21441;-60
2022/03/12 10:25:39;;;;;;;22.13;9.98;;;;;;;0.89;64.50;102013.91;1921318;74;21038;-61
2022/03/12 10:28:07;;;;;;;17.20;8.55;;;;;;;0.88;64.48;102017.77;1894544;76;21510;-61
2022/03/12 10:30:36;;;;;;;17.98;9.13;;;;;;;0.92;64.81;102013.98;1895628;76;21011;-60
2022/03/12 10:33:05;;;;;;;19.05;8.85;;;;;;;0.93;64.99;102012.27;1895631;76;21125;-61
2022/03/12 10:35:36;;;;;;;17.42;8.60;;;;;;;0.95;64.74;102017.05;1895628;76;21540;-61
2022/03/12 10:38:13;;;;;;;16.90;7.45;;;;;;;0.97;64.71;102011.47;1895696;76;21043;-61
2022/03/12 10:40:42;;;;;;;18.60;9.40;;;;;;;1.03;64.48;102015.48;1895601;76;21043;-61
2022/03/12 10:43:15;;;;;;;14.80;8.25;;;;;;;1.07;64.61;102013.43;1895622;76;21495;-61
2022/03/12 10:45:49;;;;;;;18.82;9.90;;;;;;;1.21;64.63;102012.83;1895598;76;21090;-60
2022/03/12 10:48:19;;;;;;;16.40;8.10;;;;;;;1.30;64.35;102011.70;1895642;76;21531;-60
2022/03/12 10:50:50;;;;;;;16.23;7.58;;;;;;;1.40;64.60;102020.11;1895652;76;21051;-61
2022/03/12 10:53:22;;;;;;;14.28;7.60;;;;;;;1.39;64.17;102023.56;1895671;75;21039;-61
2022/03/12 10:55:51;;;;;;;15.45;8.28;;;;;;;1.33;63.81;102028.65;1895546;75;21039;-61
2022/03/12 10:58:28;;;;;;;13.68;7.42;;;;;;;1.37;63.88;102017.47;1895644;75;21151;-61
2022/03/12 11:01:02;;;;;;;18.07;8.55;;;;;;;1.44;63.72;102020.64;1895742;76;21007;-61
2022/03/12 11:03:34;;;;;;;17.80;9.40;;;;;;;1.50;63.37;102014.69;1895731;76;21022;-61
2022/03/12 11:06:04;;;;;;;19.27;9.43;;;;;;;1.58;63.52;102018.29;1895570;76;21036;-61
2022/03/12 11:08:34;;;;;;;15.95;7.53;;;;;;;1.65;63.70;102014.09;1895589;76;21469;-61
2022/03/12 11:11:15;;;;;;;14.45;7.65;;;;;;;1.70;63.56;102017.22;1895749;76;21042;-61
2022/03/12 11:13:54;;;;;;;14.30;8.18;;;;;;;1.68;63.32;102020.66;1895732;75;21055;-60
2022/03/12 11:16:32;;;;;;;15.08;7.78;;;;;;;1.60;63.13;102024.38;1894390;75;21050;-60
2022/03/12 11:19:07;;;;;;;17.40;7.97;;;;;;;1.56;63.27;102030.37;1901298;74;21167;-61
2022/03/12 11:21:37;;;;;;;13.62;8.53;;;;;;;1.40;63.13;102035.68;1912877;75;21019;-62
2022/03/12 11:24:09;;;;;;;18.62;9.28;;;;;;;1.39;63.28;102026.16;1913939;75;21027;-62
2022/03/12 11:26:46;;;;;;;16.75;8.33;;;;;;;1.39;63.31;102030.05;1914049;75;21014;-61
2022/03/12 11:29:16;;;;;;;15.30;8.18;;;;;;;1.39;63.01;102035.67;1916094;73;21172;-58
2022/03/12 11:31:53;;;;;;;13.25;6.92;;;;;;;1.44;63.09;102037.52;1916551;75;21057;-58
2022/03/12 11:34:39;;;;;;;16.90;8.73;;;;;;;1.43;62.97;102038.34;1916505;75;21112;-58
2022/03/12 11:37:12;;;;;;;16.62;9.05;;;;;;;1.31;63.05;102039.39;1901935;75;21129;-58
2022/03/12 11:40:03;;;;;;;14.90;7.80;;;;;;;1.30;63.33;102038.95;1892155;76;21140;-58